Time;durP1;ratioP1;P1;durP2;ratioP2;P2;SDS_P1;SDS_P2;PMS_P1;PMS_P2;Temp;Humidity;BMP_temperature;BMP_pressure;BME280_temperature;BME280_humidity;BME280_pressure;Samples;Min_cycle;Max_cycle;Signal;HPM_P1;HPM_P2
2022/12/17 13:07:47;;;;;;;105.43;62.75;;;;;;;-2.47;100.00;159932.53;5024766;28;20084;-61
2022/12/17 13:10:29;;;;;;;107.20;60.70;;;;;;;-2.48;100.00;159929.84;5018766;28;20037;-61
2022/12/17 13:12:54;;;;;;;120.03;64.88;;;;;;;-2.48;100.00;159931.22;5019878;28;20610;-60
2022/12/17 13:15:34;;;;;;;114.47;63.35;;;;;;;-2.42;100.00;159945.94;5013231;28;20100;-60
2022/12/17 13:18:18;;;;;;;113.95;64.25;;;;;;;-2.42;100.00;159945.94;5010393;28;20048;-60
2022/12/17 13:20:54;;;;;;;113.47;62.78;;;;;;;-2.38;100.00;159955.31;5011463;28;20160;-60
2022/12/17 13:23:48;;;;;;;116.45;62.83;;;;;;;-2.42;100.00;159945.94;5017388;28;20021;-61
2022/12/17 13:26:23;;;;;;;118.70;64.65;;;;;;;-2.42;100.00;159945.94;5014624;28;20102;-60
2022/12/17 13:28:55;;;;;;;107.03;63.95;;;;;;;-2.43;100.00;159943.25;5028522;28;20079;-61
2022/12/17 13:31:27;;;;;;;110.70;59.67;;;;;;;-2.40;100.00;159951.25;5024677;28;20060;-60
2022/12/17 13:34:24;;;;;;;126.10;64.35;;;;;;;-2.43;100.00;159943.25;5030443;28;20103;-61
2022/12/17 13:37:02;;;;;;;106.80;61.87;;;;;;;-2.49;100.00;159927.16;5026988;28;20099;-61
2022/12/17 13:39:44;;;;;;;109.68;65.55;;;;;;;-2.47;100.00;159932.53;5030228;28;20027;-60
2022/12/17 13:42:30;;;;;;;113.35;67.72;;;;;;;-2.53;100.00;159917.81;5028628;28;20446;-61
2022/12/17 13:44:57;;;;;;;109.05;67.30;;;;;;;-2.51;100.00;159921.84;5024296;28;20096;-60
2022/12/17 13:47:26;;;;;;;110.75;68.90;;;;;;;-2.54;100.00;159915.16;5021809;28;20048;-60
2022/12/17 13:49:54;;;;;;;114.57;62.88;;;;;;;-2.56;100.00;159911.13;5021926;28;20036;-61
2022/12/17 13:52:23;;;;;;;111.38;67.65;;;;;;;-2.53;100.00;159916.47;5026096;28;20041;-60
2022/12/17 13:54:48;;;;;;;;;;;;;;;-2.52;100.00;159920.47;5029505;28;20071;-60
2022/12/17 13:57:16;;;;;;;116.57;66.17;;;;;;;-2.63;100.00;159892.41;5027443;28;19921;-60
2022/12/17 13:59:55;;;;;;;111.30;71.93;;;;;;;-2.65;100.00;159885.72;5016238;28;20453;-60
2022/12/17 14:02:37;;;;;;;125.95;73.60;;;;;;;-2.71;100.00;159872.34;5014555;28;20049;-60
2022/12/17 14:05:21;;;;;;;122.47;64.97;;;;;;;-2.70;100.00;159873.66;5011383;28;20033;-60
2022/12/17 14:07:46;;;;;;;122.38;65.50;;;;;;;-2.67;100.00;159881.72;5025165;28;20107;-60
2022/12/17 14:10:15;;;;;;;113.47;71.32;;;;;;;-2.82;100.00;159841.59;5030653;28;20412;-60
2022/12/17 14:12:41;;;;;;;128.88;68.22;;;;;;;-2.69;100.00;159876.34;5011218;28;20044;-60
2022/12/17 14:15:23;;;;;;;111.40;67.63;;;;;;;-2.71;100.00;159872.34;5021600;28;20017;-60
2022/12/17 14:17:49;;;;;;;118.70;73.50;;;;;;;-2.73;100.00;159865.69;5028029;28;20052;-60
2022/12/17 14:20:27;;;;;;;124.97;69.05;;;;;;;-2.74;100.00;159863.00;5030750;28;20041;-60
2022/12/17 14:22:55;;;;;;;126.22;70.07;;;;;;;-2.81;100.00;159844.28;5023263;28;20041;-60
2022/12/17 14:25:29;;;;;;;123.38;64.80;;;;;;;-2.83;100.00;159838.91;5021900;28;20488;-60
2022/12/17 14:28:18;;;;;;;128.05;67.88;;;;;;;-2.82;100.00;159841.59;5018615;28;20132;-60
2022/12/17 14:30:44;;;;;;;115.43;67.07;;;;;;;-2.85;100.00;159834.91;5017020;28;20037;-61
2022/12/17 14:33:28;;;;;;;132.52;67.70;;;;;;;-2.83;100.00;159838.91;5025688;28;20121;-60
2022/12/17 14:35:56;;;;;;;123.15;68.47;;;;;;;-2.87;100.00;159830.88;5028674;28;20037;-60
2022/12/17 14:38:22;;;;;;;125.10;67.53;;;;;;;-2.95;100.00;159809.53;5031001;28;20032;-60
2022/12/17 14:40:48;;;;;;;117.50;65.47;;;;;;;-3.02;100.00;159790.81;5029529;28;20025;-60
2022/12/17 14:43:14;;;;;;;114.70;62.05;;;;;;;-3.05;100.00;159784.06;5021548;28;20403;-60
2022/12/17 14:51:34;;;;;;;123.22;63.55;;;;;;;-3.06;100.00;159780.06;5020662;28;20040;-60
2022/12/17 14:54:24;;;;;;;122.30;69.15;;;;;;;-3.06;100.00;159780.06;5019869;28;20037;-60
2022/12/17 14:56:50;;;;;;;116.20;61.90;;;;;;;-3.06;100.00;159780.06;5009234;28;20045;-61
2022/12/17 14:59:31;;;;;;;123.10;69.13;;;;;;;-3.10;100.00;159769.41;5011440;28;20068;-61
2022/12/17 15:02:11;;;;;;;118.85;64.90;;;;;;;-3.28;100.00;159723.94;5009147;28;20526;-59
2022/12/17 15:04:37;;;;;;;128.70;62.03;;;;;;;-3.19;100.00;159746.66;5017500;28;20496;-60
2022/12/17 15:07:04;;;;;;;120.13;63.50;;;;;;;-3.16;100.00;159753.38;5028947;28;20065;-60
2022/12/17 15:09:35;;;;;;;110.30;64.88;;;;;;;-3.17;100.00;159750.69;5028037;28;20030;-60
2022/12/17 15:12:00;;;;;;;126.65;67.32;;;;;;;-3.14;100.00;159758.69;5026184;28;20037;-61
2022/12/17 15:14:25;;;;;;;123.63;67.70;;;;;;;-3.20;100.00;159745.31;5026026;28;20040;-60
2022/12/17 15:16:51;;;;;;;119.57;64.55;;;;;;;-3.17;100.00;159750.69;5026539;28;20539;-59
2022/12/17 15:19:16;;;;;;;149.65;75.78;;;;;;;-3.22;100.00;159739.97;5022649;28;20052;-61
2022/12/17 15:21:42;;;;;;;123.78;65.00;;;;;;;-3.24;100.00;159733.28;5023188;28;20544;-60
2022/12/17 15:24:13;;;;;;;123.70;68.38;;;;;;;-3.28;100.00;159723.94;5015092;28;20028;-60
2022/12/17 15:26:38;;;;;;;129.68;65.97;;;;;;;-3.31;100.00;159715.91;5021239;28;20184;-61
2022/12/17 15:29:03;;;;;;;125.28;70.50;;;;;;;-3.28;100.00;159723.94;5027082;28;20030;-61
2022/12/17 15:31:29;;;;;;;116.30;61.83;;;;;;;-3.27;100.00;159726.63;5015876;28;20037;-60
2022/12/17 15:33:54;;;;;;;128.48;68.68;;;;;;;-3.31;100.00;159714.56;5029800;28;20423;-61
2022/12/17 15:36:19;;;;;;;130.52;67.93;;;;;;;-3.37;100.00;159699.84;5015546;28;20042;-61
2022/12/17 15:38:45;;;;;;;127.97;67.00;;;;;;;-3.32;100.00;159713.25;5009356;28;20038;-60
2022/12/17 15:43:54;;;;;;;127.63;69.60;;;;;;;-3.33;100.00;159710.59;5020767;28;20123;-60
2022/12/17 15:46:19;;;;;;;134.82;74.90;;;;;;;-3.36;100.00;159702.53;5009026;28;20054;-60
2022/12/17 15:48:44;;;;;;;132.13;69.50;;;;;;;-3.42;100.00;159686.50;5012069;28;20037;-60
2022/12/17 15:51:10;;;;;;;133.00;70.80;;;;;;;-3.43;100.00;159683.81;5013453;28;20500;-60
2022/12/17 15:53:35;;;;;;;137.80;74.95;;;;;;;-3.51;100.00;159665.13;5026219;28;20037;-60
2022/12/17 15:56:02;;;;;;;126.53;68.38;;;;;;;-3.47;100.00;159673.16;5031505;28;20500;-61
2022/12/17 15:58:28;;;;;;;134.02;71.43;;;;;;;-3.49;100.00;159667.78;5033448;28;20025;-60
2022/12/17 16:00:53;;;;;;;137.43;71.88;;;;;;;-3.49;100.00;159667.78;5031077;28;20045;-61
2022/12/17 16:03:19;;;;;;;132.15;69.43;;;;;;;-3.52;100.00;159662.44;5033197;28;20431;-60
2022/12/17 16:05:44;;;;;;;135.07;67.32;;;;;;;-3.62;100.00;159635.75;5031964;28;20026;-61
2022/12/17 16:08:09;;;;;;;127.72;68.55;;;;;;;-3.59;100.00;159643.72;5025446;28;20036;-60
2022/12/17 16:10:36;;;;;;;133.35;67.03;;;;;;;-3.60;100.00;159641.03;5012165;28;20389;-60
2022/12/17 16:13:01;;;;;;;121.43;64.38;;;;;;;-3.58;100.00;159646.41;5013412;28;20053;-60
2022/12/17 16:15:27;;;;;;;125.57;68.53;;;;;;;-3.59;100.00;159643.72;5014280;28;20052;-60
2022/12/17 16:17:52;;;;;;;129.00;69.28;;;;;;;-3.70;100.00;159614.34;5011749;28;20049;-60
2022/12/17 16:20:17;;;;;;;134.80;68.30;;;;;;;-3.69;100.00;159618.34;5013341;28;20021;-61
2022/12/17 16:22:43;;;;;;;136.20;68.00;;;;;;;-3.72;100.00;159610.31;5011777;28;20050;-60
2022/12/17 16:25:08;;;;;;;128.15;65.30;;;;;;;-3.68;100.00;159619.66;5012685;28;20084;-61
2022/12/17 16:27:34;;;;;;;129.70;63.78;;;;;;;-3.70;100.00;159614.34;5011852;28;20068;-61
2022/12/17 16:29:59;;;;;;;142.15;68.40;;;;;;;-3.78;100.00;159592.97;5023421;28;20026;-60
2022/12/17 16:32:24;;;;;;;147.85;69.00;;;;;;;-3.76;100.00;159598.31;5031239;28;20042;-61
2022/12/17 16:34:50;;;;;;;156.80;70.85;;;;;;;-3.77;100.00;159595.66;5032943;28;20080;-61
2022/12/17 16:37:15;;;;;;;136.73;67.63;;;;;;;-3.74;100.00;159603.63;5030788;28;20045;-60
2022/12/17 16:39:40;;;;;;;137.60;74.10;;;;;;;-3.82;100.00;159583.59;5026264;28;20025;-60
2022/12/17 16:42:06;;;;;;;155.80;72.38;;;;;;;-3.85;100.00;159576.94;5032232;28;20104;-61
2022/12/17 16:44:31;;;;;;;157.57;71.78;;;;;;;-3.86;100.00;159574.25;5023238;28;20052;-61
2022/12/17 16:46:57;;;;;;;137.60;69.45;;;;;;;-3.85;100.00;159576.94;5011916;28;20058;-61
2022/12/17 16:49:23;;;;;;;128.13;61.92;;;;;;;-3.87;100.00;159571.56;5017840;28;20028;-61
2022/12/17 16:51:50;;;;;;;123.38;56.80;;;;;;;-3.92;100.00;159556.88;5030964;28;20204;-61
2022/12/17 16:54:18;;;;;;;125.07;64.10;;;;;;;-3.95;100.00;159548.88;5031939;28;20032;-60
2022/12/17 16:56:44;;;;;;;147.15;64.30;;;;;;;-3.94;100.00;159552.88;5031013;28;20076;-61
2022/12/17 16:59:11;;;;;;;133.63;64.05;;;;;;;-3.96;100.00;159547.50;5031874;28;20033;-61
2022/12/17 17:01:38;;;;;;;141.90;66.55;;;;;;;-3.95;100.00;159550.19;5024838;28;20038;-61
2022/12/17 17:04:06;;;;;;;143.73;70.47;;;;;;;-4.06;100.00;159520.81;5012289;28;20387;-61
2022/12/17 17:06:32;;;;;;;150.25;68.90;;;;;;;-4.10;100.00;159510.13;5010980;28;20050;-61
2022/12/17 17:08:57;;;;;;;174.43;74.88;;;;;;;-4.15;100.00;159499.44;5012287;28;20373;-61
2022/12/17 17:11:24;;;;;;;151.18;67.40;;;;;;;-4.21;100.00;159482.06;5024414;28;20080;-61
2022/12/17 17:13:51;;;;;;;149.10;62.95;;;;;;;-4.17;100.00;159492.78;5027617;28;20104;-60
2022/12/17 17:16:19;;;;;;;148.02;68.93;;;;;;;-4.28;100.00;159464.66;5016995;28;20034;-61
2022/12/17 17:18:44;;;;;;;143.90;72.35;;;;;;;-4.26;100.00;159470.03;5024300;28;20028;-60
2022/12/17 17:21:18;;;;;;;146.82;65.53;;;;;;;-4.22;100.00;159480.75;5010454;28;20041;-61
2022/12/17 17:23:48;;;;;;;155.73;68.55;;;;;;;-4.26;100.00;159470.03;5013073;28;20484;-60
2022/12/17 17:26:14;;;;;;;154.25;70.30;;;;;;;-4.43;100.00;159424.66;5028643;28;20060;-61
2022/12/17 17:28:40;;;;;;;153.82;70.47;;;;;;;-4.28;100.00;159464.66;5032059;28;20025;-61
2022/12/17 17:31:10;;;;;;;164.52;73.45;;;;;;;-4.26;100.00;159470.03;5015386;28;20408;-61
2022/12/17 17:33:38;;;;;;;170.30;78.05;;;;;;;-4.33;100.00;159451.34;5013429;28;20106;-61
2022/12/17 17:36:03;;;;;;;167.33;77.80;;;;;;;-4.33;100.00;159452.69;5010212;28;20038;-61
2022/12/17 17:38:29;;;;;;;165.73;72.18;;;;;;;-4.24;100.00;159474.03;5021554;28;20507;-60
2022/12/17 17:40:57;;;;;;;173.32;74.32;;;;;;;-4.30;100.00;159459.38;5011176;28;20046;-61
2022/12/17 17:43:23;;;;;;;200.52;82.57;;;;;;;-4.25;100.00;159472.72;5024107;28;20026;-61
2022/12/17 17:45:48;;;;;;;178.70;76.03;;;;;;;-4.23;100.00;159478.06;5010314;28;20504;-61
2022/12/17 17:48:13;;;;;;;189.00;76.88;;;;;;;-4.24;100.00;159475.38;5017552;28;20033;-61
2022/12/17 17:50:39;;;;;;;187.32;81.53;;;;;;;-4.24;100.00;159475.38;5029897;28;20084;-60
2022/12/17 17:53:04;;;;;;;165.93;79.63;;;;;;;-4.32;100.00;159454.00;5031351;28;20530;-61
2022/12/17 17:55:33;;;;;;;181.70;80.13;;;;;;;-4.24;100.00;159475.38;5031009;28;20024;-61
2022/12/17 17:57:58;;;;;;;190.48;78.20;;;;;;;-4.23;100.00;159478.06;5029764;28;20049;-61
2022/12/17 18:00:24;;;;;;;166.25;81.05;;;;;;;-4.24;100.00;159475.38;5024776;28;20022;-61
2022/12/17 18:02:49;;;;;;;166.65;80.88;;;;;;;-4.28;100.00;159463.34;5009884;28;20041;-60
2022/12/17 18:05:14;;;;;;;180.15;78.78;;;;;;;-4.31;100.00;159456.69;5011183;28;20077;-61
2022/12/17 18:07:40;;;;;;;196.15;83.35;;;;;;;-4.39;100.00;159435.31;5010043;28;20405;-60
2022/12/17 18:10:07;;;;;;;170.43;77.75;;;;;;;-4.43;100.00;159424.66;5010707;28;20036;-60
2022/12/17 18:15:16;;;;;;;189.40;74.93;;;;;;;-4.49;100.00;159411.25;5027349;28;20040;-60
2022/12/17 18:17:46;;;;;;;167.20;75.55;;;;;;;-4.41;100.00;159429.97;5010582;28;20037;-60
2022/12/17 18:20:12;;;;;;;193.48;77.55;;;;;;;-4.37;100.00;159440.66;5010987;28;20051;-60
2022/12/17 18:22:37;;;;;;;190.90;78.88;;;;;;;-4.37;100.00;159440.66;5024263;28;20126;-60
2022/12/17 18:25:03;;;;;;;186.25;75.88;;;;;;;-4.42;100.00;159428.66;5028578;28;20037;-60
2022/12/17 18:27:29;;;;;;;197.80;83.43;;;;;;;-4.42;100.00;159427.28;5017369;28;20044;-60
2022/12/17 18:29:54;;;;;;;198.80;83.15;;;;;;;-4.41;100.00;159429.97;5010819;28;20030;-60
2022/12/17 18:32:20;;;;;;;174.75;71.30;;;;;;;-4.41;100.00;159429.97;5009298;28;20038;-60
2022/12/17 18:34:45;;;;;;;191.63;81.10;;;;;;;-4.49;100.00;159411.25;5013761;28;20519;-60
2022/12/17 18:37:10;;;;;;;194.23;79.05;;;;;;;-4.58;100.00;159387.25;5010110;28;20065;-60
2022/12/17 18:39:36;;;;;;;153.63;72.63;;;;;;;-4.55;100.00;159395.25;5029863;28;20033;-60
2022/12/17 18:44:45;;;;;;;200.18;77.72;;;;;;;-4.55;100.00;159395.25;5030330;28;20067;-60
2022/12/17 18:47:10;;;;;;;171.30;69.80;;;;;;;-4.61;100.00;159379.22;5028382;28;20045;-60
2022/12/17 18:49:36;;;;;;;205.15;79.68;;;;;;;-4.57;100.00;159388.56;5030352;28;20037;-60
2022/12/17 18:52:01;;;;;;;184.80;72.05;;;;;;;-4.60;100.00;159381.91;5028965;28;20099;-60
2022/12/17 18:54:28;;;;;;;186.23;82.25;;;;;;;-4.60;100.00;159380.53;5030188;28;20017;-60
2022/12/17 18:56:56;;;;;;;190.90;70.80;;;;;;;-4.63;100.00;159373.88;5028673;28;20095;-60
2022/12/17 18:59:26;;;;;;;210.82;81.72;;;;;;;-4.64;100.00;159371.19;5030421;28;20460;-60
2022/12/17 19:01:52;;;;;;;192.05;78.25;;;;;;;-4.62;100.00;159377.88;5018081;28;20049;-60
2022/12/17 19:04:19;;;;;;;194.07;84.90;;;;;;;-4.63;100.00;159373.88;5018726;28;20034;-60
2022/12/17 19:06:47;;;;;;;186.02;79.45;;;;;;;-4.60;100.00;159380.53;5016985;28;20073;-59
2022/12/17 19:09:22;;;;;;;205.63;84.57;;;;;;;-4.62;100.00;159376.53;5011023;28;20038;-59
2022/12/17 19:11:47;;;;;;;168.43;72.93;;;;;;;-4.66;100.00;159365.88;5014794;28;20034;-59
2022/12/17 19:14:12;;;;;;;205.05;80.22;;;;;;;-4.78;100.00;159335.16;5011162;28;20033;-60
2022/12/17 19:16:38;;;;;;;198.65;79.43;;;;;;;-4.75;100.00;159343.16;5008590;28;20033;-59
2022/12/17 19:19:04;;;;;;;205.77;79.38;;;;;;;-4.83;100.00;159323.16;5010340;28;20030;-59
2022/12/17 19:21:32;;;;;;;208.98;81.43;;;;;;;-4.87;100.00;159312.44;5009482;28;20122;-59
2022/12/17 19:24:00;;;;;;;217.53;84.70;;;;;;;-4.80;100.00;159331.13;5014167;28;20404;-59
2022/12/17 19:26:26;;;;;;;222.77;79.72;;;;;;;-4.83;100.00;159323.16;5013528;28;20042;-59
2022/12/17 19:28:53;;;;;;;201.13;76.45;;;;;;;-4.88;100.00;159309.81;5014834;28;20026;-59
2022/12/17 19:31:20;;;;;;;202.52;77.13;;;;;;;-4.92;100.00;159299.09;5012899;28;20455;-59
2022/12/17 19:33:46;;;;;;;174.82;72.47;;;;;;;-4.94;100.00;159295.13;5014468;28;20148;-59
2022/12/17 19:36:14;;;;;;;181.52;66.20;;;;;;;-4.99;100.00;159280.41;5012752;28;20046;-59
2022/12/17 19:38:39;;;;;;;186.13;79.03;;;;;;;-5.02;100.00;159272.38;5014032;28;20515;-59
2022/12/17 19:41:16;;;;;;;169.65;75.60;;;;;;;-5.02;100.00;159272.38;5012595;28;20037;-59
2022/12/17 19:43:46;;;;;;;155.70;77.20;;;;;;;-5.02;100.00;159272.38;5014371;28;20022;-59
2022/12/17 19:46:17;;;;;;;173.77;78.38;;;;;;;-5.02;100.00;159272.38;5012139;28;20057;-59
2022/12/17 19:48:44;;;;;;;169.60;70.65;;;;;;;-5.01;100.00;159275.06;5014277;28;20052;-59
2022/12/17 19:51:11;;;;;;;153.85;73.50;;;;;;;-5.01;100.00;159275.06;5012788;28;20382;-59
2022/12/17 19:53:38;;;;;;;157.73;69.00;;;;;;;-5.05;100.00;159264.41;5014190;28;20026;-59
2022/12/17 19:56:14;;;;;;;144.15;67.88;;;;;;;-5.07;100.00;159259.06;5012258;28;20117;-59
2022/12/17 19:58:40;;;;;;;143.30;71.95;;;;;;;-5.14;100.00;159241.72;5014127;28;20524;-59
2022/12/17 20:01:11;;;;;;;171.52;72.03;;;;;;;-5.11;100.00;159251.06;5012305;28;20040;-59
2022/12/17 20:03:38;;;;;;;146.73;72.35;;;;;;;-5.15;100.00;159240.34;5014036;28;20105;-59
2022/12/17 20:06:05;;;;;;;162.63;71.30;;;;;;;-5.17;100.00;159235.00;5012232;28;20041;-59
2022/12/17 20:08:32;;;;;;;160.02;79.05;;;;;;;-5.21;100.00;159223.03;5013528;28;20025;-59
2022/12/17 20:10:59;;;;;;;163.20;69.05;;;;;;;-5.26;100.00;159212.34;5012111;28;20040;-59
2022/12/17 20:13:24;;;;;;;178.27;69.68;;;;;;;-5.26;100.00;159212.34;5014214;28;20083;-59
2022/12/17 20:16:03;;;;;;;173.48;69.28;;;;;;;-5.25;100.00;159213.69;5011922;28;20018;-59
2022/12/17 20:18:29;;;;;;;167.63;77.53;;;;;;;-5.27;100.00;159208.34;5013510;28;20133;-59
2022/12/17 20:21:01;;;;;;;159.80;76.15;;;;;;;-5.34;100.00;159189.66;5011852;28;20492;-59
2022/12/17 20:23:26;;;;;;;171.45;75.10;;;;;;;-5.33;100.00;159192.34;5013457;28;20029;-59
2022/12/17 20:26:03;;;;;;;175.95;71.15;;;;;;;-5.34;100.00;159190.97;5012151;28;20022;-59
2022/12/17 20:28:29;;;;;;;173.38;74.85;;;;;;;-5.38;100.00;159178.97;5013472;28;20108;-59
2022/12/17 20:30:54;;;;;;;171.20;72.07;;;;;;;-5.43;100.00;159168.31;5011309;28;20053;-59
2022/12/17 20:33:19;;;;;;;169.23;78.95;;;;;;;-5.43;100.00;159168.31;5013164;28;20141;-59
2022/12/17 20:35:45;;;;;;;161.95;70.10;;;;;;;-5.39;100.00;159177.63;5011493;28;20034;-59
2022/12/17 20:38:10;;;;;;;156.00;71.38;;;;;;;-5.42;100.00;159170.97;5012360;28;20030;-59
2022/12/17 20:40:38;;;;;;;151.57;72.05;;;;;;;-5.52;100.00;159144.28;5011834;28;20026;-59
2022/12/17 20:43:03;;;;;;;119.03;57.70;;;;;;;-5.59;100.00;159125.59;5012976;28;20476;-59
2022/12/17 20:45:29;;;;;;;160.10;72.30;;;;;;;-5.65;100.00;159109.59;5012535;28;20045;-59
2022/12/17 20:47:54;;;;;;;165.80;70.85;;;;;;;-5.65;100.00;159109.59;5011607;28;20045;-59
2022/12/17 20:50:19;;;;;;;155.10;70.05;;;;;;;-5.63;100.00;159116.25;5013439;28;20033;-59
2022/12/17 20:52:45;;;;;;;155.88;72.80;;;;;;;-5.67;100.00;159104.22;5011041;28;20042;-59
2022/12/17 20:55:10;;;;;;;146.55;65.40;;;;;;;-5.64;100.00;159112.25;5012669;28;20037;-59
2022/12/17 20:57:35;;;;;;;143.95;67.68;;;;;;;-5.63;100.00;159114.94;5011489;28;20041;-59
2022/12/17 21:00:01;;;;;;;159.48;70.60;;;;;;;-5.64;100.00;159113.56;5012535;28;20041;-59
2022/12/17 21:02:26;;;;;;;139.50;62.30;;;;;;;-5.67;100.00;159105.59;5011471;28;20496;-59
2022/12/17 21:04:51;;;;;;;152.65;68.43;;;;;;;-5.68;100.00;159101.56;5012832;28;20424;-59
2022/12/17 21:07:17;;;;;;;154.60;68.22;;;;;;;-5.69;100.00;159098.88;5010381;28;20049;-59
2022/12/17 21:09:43;;;;;;;152.73;68.82;;;;;;;-5.66;100.00;159106.91;5012732;28;20026;-59
2022/12/17 21:12:08;;;;;;;161.50;68.38;;;;;;;-5.69;100.00;159098.88;5011096;28;20053;-59
2022/12/17 21:14:33;;;;;;;160.05;69.97;;;;;;;-5.67;100.00;159104.22;5012342;28;20041;-59
2022/12/17 21:16:59;;;;;;;213.65;83.55;;;;;;;-5.62;100.00;159117.63;5010903;28;20088;-59
2022/12/17 21:19:26;;;;;;;157.32;74.72;;;;;;;-5.58;100.00;159129.56;5012681;28;20025;-59
2022/12/17 21:21:51;;;;;;;165.70;73.90;;;;;;;-5.62;100.00;159117.63;5010597;28;20034;-59
2022/12/17 21:24:17;;;;;;;165.00;70.63;;;;;;;-5.66;100.00;159106.91;5012154;28;20033;-59
2022/12/17 21:26:44;;;;;;;168.68;76.90;;;;;;;-5.59;100.00;159125.59;5010977;28;20038;-59
2022/12/17 21:29:10;;;;;;;196.43;83.03;;;;;;;-5.65;100.00;159109.59;5011606;28;20540;-59
2022/12/17 21:31:44;;;;;;;164.70;71.60;;;;;;;-5.67;100.00;159104.22;5011201;28;20053;-59
2022/12/17 21:34:13;;;;;;;169.10;81.70;;;;;;;-5.65;100.00;159109.59;5012162;28;20026;-59
2022/12/17 21:36:38;;;;;;;197.38;82.68;;;;;;;-5.72;100.00;159092.22;5010408;28;20315;-59
2022/12/17 21:39:06;;;;;;;193.35;79.78;;;;;;;-5.85;100.00;159058.91;5011913;28;20248;-59
2022/12/17 21:41:33;;;;;;;172.07;80.03;;;;;;;-5.79;100.00;159073.53;5010772;28;20064;-59
2022/12/17 21:44:01;;;;;;;197.10;82.25;;;;;;;-5.81;100.00;159069.56;5011648;28;20025;-59
2022/12/17 21:46:27;;;;;;;193.35;79.75;;;;;;;-5.91;100.00;159042.84;5009813;28;20050;-59
2022/12/17 21:48:54;;;;;;;195.35;83.18;;;;;;;-6.00;100.00;159018.94;5012133;28;20057;-59
2022/12/17 21:51:20;;;;;;;217.10;84.68;;;;;;;-6.00;100.00;159018.94;5010406;28;20034;-59
2022/12/17 21:53:45;;;;;;;228.95;83.40;;;;;;;-6.09;100.00;158997.56;5011936;28;20381;-59
2022/12/17 21:56:15;;;;;;;240.57;96.95;;;;;;;-6.04;100.00;159009.59;5010174;28;20401;-59
2022/12/17 21:58:42;;;;;;;280.63;96.75;;;;;;;-6.06;100.00;159005.56;5011580;28;20033;-59
2022/12/17 22:01:14;;;;;;;244.10;86.32;;;;;;;-6.11;100.00;158992.22;5010298;28;20037;-59
2022/12/17 22:03:40;;;;;;;246.18;94.30;;;;;;;-6.13;100.00;158986.88;5011636;28;20087;-59
2022/12/17 22:06:07;;;;;;;225.02;90.47;;;;;;;-6.21;100.00;158965.53;5009705;28;20497;-59
2022/12/17 22:08:32;;;;;;;244.18;102.18;;;;;;;-6.15;100.00;158981.59;5011640;28;20079;-59
2022/12/17 22:10:58;;;;;;;270.77;93.53;;;;;;;-6.39;100.00;158920.22;5010007;28;20038;-59
2022/12/17 22:16:07;;;;;;;252.55;91.07;;;;;;;-6.44;100.00;158906.84;5009860;28;20118;-60
2022/12/17 22:18:33;;;;;;;233.32;87.95;;;;;;;-6.51;100.00;158888.19;5011252;28;20460;-59
2022/12/17 22:20:59;;;;;;;221.43;82.68;;;;;;;-6.52;100.00;158885.56;5009575;28;20034;-59
2022/12/17 22:23:25;;;;;;;252.30;89.43;;;;;;;-6.54;100.00;158881.53;5011367;28;20377;-59
2022/12/17 22:25:50;;;;;;;217.15;88.63;;;;;;;-6.50;100.00;158890.88;5009809;28;20052;-59
2022/12/17 22:28:16;;;;;;;251.25;90.43;;;;;;;-6.58;100.00;158869.53;5010951;28;20048;-59
2022/12/17 22:33:25;;;;;;;194.75;76.30;;;;;;;-6.71;100.00;158836.22;5011208;28;20499;-59
2022/12/17 22:35:50;;;;;;;236.70;86.72;;;;;;;-6.79;100.00;158816.19;5009636;28;20014;-59
2022/12/17 22:38:15;;;;;;;249.27;88.65;;;;;;;-6.83;100.00;158805.56;5011030;28;20545;-59
2022/12/17 22:40:41;;;;;;;230.85;85.45;;;;;;;-6.82;100.00;158806.88;5009672;28;20026;-59
2022/12/17 22:45:58;;;;;;;252.07;90.80;;;;;;;-6.85;100.00;158801.53;5009539;28;20057;-59
2022/12/17 22:48:23;;;;;;;208.35;79.07;;;;;;;-6.91;100.00;158785.53;5011057;28;20021;-59
2022/12/17 22:50:49;;;;;;;216.50;84.55;;;;;;;-6.94;100.00;158776.22;5009544;28;20022;-59
2022/12/17 22:53:14;;;;;;;213.50;89.22;;;;;;;-7.01;100.00;158760.22;5010806;28;20033;-59
2022/12/17 22:55:39;;;;;;;227.18;92.07;;;;;;;-7.13;100.00;158728.25;5009699;28;20025;-58
2022/12/17 22:58:05;;;;;;;215.77;87.18;;;;;;;-7.18;100.00;158714.88;5010082;28;20018;-59
2022/12/17 23:00:33;;;;;;;210.43;86.45;;;;;;;-7.28;100.00;158689.56;5011076;28;20014;-59
2022/12/17 23:02:58;;;;;;;216.63;85.10;;;;;;;-7.27;100.00;158690.94;5009212;28;20038;-59
2022/12/17 23:05:25;;;;;;;206.57;81.35;;;;;;;-7.24;100.00;158700.28;5010759;28;20037;-59
2022/12/17 23:07:51;;;;;;;193.73;79.35;;;;;;;-7.26;100.00;158693.63;5009588;28;20732;-59
2022/12/17 23:10:17;;;;;;;210.90;78.30;;;;;;;-7.34;100.00;158674.97;5010529;28;20025;-59
2022/12/17 23:12:49;;;;;;;222.10;74.28;;;;;;;-7.41;100.00;158656.25;5009108;28;20129;-59
2022/12/17 23:15:16;;;;;;;194.05;82.35;;;;;;;-7.48;100.00;158637.59;5010691;28;20101;-59
2022/12/17 23:17:41;;;;;;;232.85;81.07;;;;;;;-7.58;100.00;158611.00;5009311;28;20460;-60
2022/12/17 23:20:07;;;;;;;203.73;81.00;;;;;;;-7.69;100.00;158584.31;5010316;28;20080;-59
2022/12/17 23:22:32;;;;;;;191.88;78.50;;;;;;;-7.74;100.00;158571.03;5009289;28;20041;-59
2022/12/17 23:24:58;;;;;;;196.43;74.75;;;;;;;-7.84;100.00;158544.34;5009093;28;20366;-59
2022/12/17 23:27:23;;;;;;;181.18;70.35;;;;;;;-7.99;100.00;158507.06;5008921;28;20050;-59
2022/12/17 23:29:48;;;;;;;183.85;71.25;;;;;;;-8.15;100.00;158464.44;5010751;28;20034;-60
2022/12/17 23:32:14;;;;;;;194.38;72.10;;;;;;;-8.22;100.00;158445.81;5008910;28;20046;-59
2022/12/17 23:34:39;;;;;;;165.02;72.15;;;;;;;-8.31;100.00;158424.53;5010085;28;20049;-59
2022/12/17 23:37:04;;;;;;;202.45;74.90;;;;;;;-8.30;100.00;158425.84;5008813;28;20324;-59
2022/12/17 23:39:30;;;;;;;190.20;70.53;;;;;;;-8.30;100.00;158425.84;5010586;28;20022;-59
2022/12/17 23:41:55;;;;;;;171.95;63.25;;;;;;;-8.29;100.00;158429.84;5008695;28;20575;-59
2022/12/17 23:44:20;;;;;;;176.82;72.05;;;;;;;-8.34;100.00;158416.53;5010262;28;20405;-59
2022/12/17 23:46:46;;;;;;;185.25;70.60;;;;;;;-8.35;100.00;158412.56;5013312;28;20053;-59
2022/12/17 23:49:13;;;;;;;158.73;71.22;;;;;;;-8.39;100.00;158403.22;5013185;28;20080;-59
2022/12/17 23:51:39;;;;;;;192.27;68.72;;;;;;;-8.43;100.00;158392.56;5009587;28;20049;-59
2022/12/17 23:54:04;;;;;;;175.63;80.25;;;;;;;-8.49;100.00;158376.63;5009166;28;20029;-60
2022/12/17 23:56:30;;;;;;;176.70;67.53;;;;;;;-8.55;100.00;158360.66;4958303;28;20194;-59
2022/12/17 23:58:57;;;;;;;168.40;69.75;;;;;;;-8.62;100.00;158344.72;5025241;28;20048;-59
